Time;durP1;ratioP1;P1;durP2;ratioP2;P2;SDS_P1;SDS_P2;PMS_P1;PMS_P2;Temp;Humidity;BMP_temperature;BMP_pressure;BME280_temperature;BME280_humidity;BME280_pressure;Samples;Min_cycle;Max_cycle;Signal;HPM_P1;HPM_P2
2021/10/06 00:00:17;;;;;;;3.60;1.00;;;;;;;16.25;76.75;99635.75;4955655;28;20449;-87
2021/10/06 00:02:46;;;;;;;4.75;1.42;;;;;;;16.20;79.06;99637.94;4955828;28;20061;-90
2021/10/06 00:05:13;;;;;;;2.40;1.25;;;;;;;16.22;78.72;99649.16;4955566;28;20058;-89
2021/10/06 00:07:40;;;;;;;5.05;1.35;;;;;;;16.25;77.06;99643.66;4955034;29;20541;-87
2021/10/06 00:10:08;;;;;;;3.92;1.40;;;;;;;16.23;75.98;99640.28;4955822;28;20043;-89
2021/10/06 00:12:35;;;;;;;2.47;1.42;;;;;;;16.44;72.20;99638.50;4956921;28;20050;-91
2021/10/06 00:15:05;;;;;;;6.47;1.25;;;;;;;16.42;70.77;99621.19;4956474;29;20051;-93
2021/10/06 00:17:34;;;;;;;7.68;1.55;;;;;;;16.43;73.02;99628.13;4954518;28;20051;-91
2021/10/06 00:20:03;;;;;;;2.97;1.38;;;;;;;16.38;74.84;99627.66;4956374;28;20173;-91
2021/10/06 00:22:30;;;;;;;5.40;1.40;;;;;;;16.30;77.63;99619.56;4955507;29;20379;-93
2021/10/06 00:24:57;;;;;;;3.60;1.63;;;;;;;15.78;81.54;99632.63;4956607;28;20438;-91
2021/10/06 00:27:24;;;;;;;8.20;1.20;;;;;;;15.62;83.02;99632.16;4956181;28;20075;-92
2021/10/06 00:29:50;;;;;;;5.45;1.33;;;;;;;15.81;79.46;99642.03;4954747;29;20490;-89
2021/10/06 00:32:17;;;;;;;10.48;3.88;;;;;;;15.96;75.31;99646.88;4955312;28;20520;-92
2021/10/06 00:34:44;;;;;;;8.40;4.88;;;;;;;16.16;72.37;99639.97;4962257;28;20098;-92
2021/10/06 00:37:11;;;;;;;10.60;4.72;;;;;;;16.29;69.74;99636.31;4964252;28;20134;-93
2021/10/06 00:39:41;;;;;;;6.22;2.70;;;;;;;16.31;70.36;99627.34;4959305;28;20074;-92
2021/10/06 00:42:11;;;;;;;6.50;2.38;;;;;;;15.74;77.93;99639.06;4959971;28;20046;-94
2021/10/06 00:44:38;;;;;;;10.63;1.95;;;;;;;15.61;80.69;99620.81;4963112;29;20048;-95
2021/10/06 00:47:10;;;;;;;11.07;1.98;;;;;;;15.51;81.66;99625.13;4962726;29;20054;-95
2021/10/06 00:49:40;;;;;;;8.52;1.88;;;;;;;15.42;83.04;99631.94;4962255;29;20130;-94
2021/10/06 00:52:11;;;;;;;4.78;1.90;;;;;;;15.18;84.12;99611.13;4960347;28;20078;-93
2021/10/06 00:54:44;;;;;;;6.45;2.33;;;;;;;15.14;83.30;99620.19;4944131;29;20111;-94
2021/10/06 00:57:12;;;;;;;9.05;1.92;;;;;;;15.16;82.59;99620.88;4960266;29;20043;-94
2021/10/06 00:59:40;;;;;;;7.90;1.98;;;;;;;15.07;81.65;99613.72;4960337;28;20102;-93
2021/10/06 01:02:07;;;;;;;6.18;2.00;;;;;;;15.05;82.58;99605.16;4960268;29;20035;-96
2021/10/06 01:04:37;;;;;;;5.05;2.00;;;;;;;14.91;84.08;99597.50;4964602;29;20464;-95
2021/10/06 01:08:02;;;;;;;6.82;2.10;;;;;;;14.99;83.18;99597.75;4932594;29;20055;-96
2021/10/06 01:10:31;;;;;;;6.55;2.55;;;;;;;14.84;84.14;99586.66;4961678;29;20047;-96
2021/10/06 01:12:58;;;;;;;12.02;2.25;;;;;;;14.72;85.11;99594.66;4942515;29;20109;-94
2021/10/06 01:15:26;;;;;;;9.50;2.60;;;;;;;14.73;83.45;99585.84;4959587;29;20043;-95
2021/10/06 01:17:56;;;;;;;9.30;2.53;;;;;;;14.80;82.59;99589.66;4961510;28;20134;-95
2021/10/06 01:20:23;;;;;;;7.00;2.53;;;;;;;14.72;82.40;99579.75;4958658;29;20047;-95
2021/10/06 01:22:51;;;;;;;9.57;2.47;;;;;;;14.63;82.21;99583.91;4958700;29;20046;-94
2021/10/06 01:25:18;;;;;;;5.28;2.30;;;;;;;14.68;82.28;99575.69;4959253;28;20294;-94
2021/10/06 01:27:46;;;;;;;6.60;2.25;;;;;;;14.57;82.27;99567.81;4959377;28;20489;-93
2021/10/06 01:30:15;;;;;;;9.57;1.98;;;;;;;14.42;84.66;99578.50;4958909;28;20050;-94
2021/10/06 01:32:45;;;;;;;2.58;1.38;;;;;;;14.34;85.70;99572.19;4956905;29;20039;-93
2021/10/06 01:35:15;;;;;;;4.57;1.85;;;;;;;14.31;86.19;99570.63;4958377;28;20118;-93
2021/10/06 01:37:44;;;;;;;9.98;1.90;;;;;;;14.28;85.62;99570.03;4957600;29;20043;-92
2021/10/06 01:40:15;;;;;;;6.40;2.22;;;;;;;14.29;85.97;99569.91;4958048;29;20051;-92
2021/10/06 01:42:42;;;;;;;7.85;2.38;;;;;;;14.32;85.48;99574.06;4942453;29;20048;-93
2021/10/06 01:45:25;;;;;;;5.22;2.40;;;;;;;14.32;84.89;99569.66;4958163;28;20035;-93
2021/10/06 01:47:53;;;;;;;11.88;2.38;;;;;;;14.38;83.54;99565.72;4959236;28;20510;-92
2021/10/06 01:50:25;;;;;;;10.77;2.50;;;;;;;14.39;84.69;99567.44;4957559;29;20043;-90
2021/10/06 01:52:53;;;;;;;5.97;2.28;;;;;;;14.48;82.82;99573.78;4957785;28;20039;-92
2021/10/06 01:55:33;;;;;;;5.60;2.15;;;;;;;14.43;82.76;99566.22;4961019;28;20055;-95
2021/10/06 01:58:03;;;;;;;7.45;2.35;;;;;;;14.47;82.14;99567.69;4958692;29;20055;-93
2021/10/06 02:00:31;;;;;;;5.57;2.20;;;;;;;14.53;81.23;99556.72;4958476;29;20071;-92
2021/10/06 02:02:59;;;;;;;9.93;2.30;;;;;;;14.55;80.89;99554.84;4958281;29;20505;-92
2021/10/06 02:05:26;;;;;;;10.10;2.13;;;;;;;14.60;81.78;99552.69;4958731;29;20039;-92
2021/10/06 02:07:53;;;;;;;3.97;1.95;;;;;;;14.61;81.64;99540.41;4958430;28;20050;-92
2021/10/06 02:10:21;;;;;;;5.68;3.25;;;;;;;14.77;78.71;99538.25;4959567;28;20047;-91
2021/10/06 02:12:47;;;;;;;8.40;3.13;;;;;;;14.83;78.70;99543.03;4959232;28;20152;-92
2021/10/06 02:15:14;;;;;;;9.80;3.05;;;;;;;14.87;78.85;99543.63;4961053;28;20071;-92
2021/10/06 02:17:52;;;;;;;5.80;2.33;;;;;;;14.89;78.57;99545.16;4962146;28;20055;-93
2021/10/06 02:20:20;;;;;;;4.13;1.73;;;;;;;14.89;78.54;99544.31;4969504;28;20059;-94
2021/10/06 02:22:49;;;;;;;4.80;2.05;;;;;;;14.88;78.62;99543.50;4970309;29;20066;-92
2021/10/06 02:25:16;;;;;;;7.13;1.80;;;;;;;14.92;78.30;99544.09;4963685;28;20050;-93
2021/10/06 02:27:44;;;;;;;6.18;2.63;;;;;;;14.90;79.66;99540.75;4963658;29;20150;-92
2021/10/06 02:30:16;;;;;;;9.07;3.53;;;;;;;14.96;80.88;99535.00;4972034;29;20043;-92
2021/10/06 02:32:45;;;;;;;5.85;3.40;;;;;;;15.00;80.77;99544.31;4975588;28;20043;-93
2021/10/06 02:35:12;;;;;;;7.80;3.30;;;;;;;15.17;80.26;99545.59;4992654;28;20031;-92
2021/10/06 02:37:40;;;;;;;6.15;3.50;;;;;;;15.24;78.95;99533.66;4973183;28;20039;-93
2021/10/06 02:40:12;;;;;;;9.82;4.07;;;;;;;15.40;77.70;99535.88;4968938;28;20047;-90
2021/10/06 02:42:40;;;;;;;8.20;3.55;;;;;;;15.52;75.55;99534.88;4972910;29;20047;-91
2021/10/06 02:45:10;;;;;;;4.80;2.58;;;;;;;15.26;79.85;99541.41;4976351;28;20050;-92
2021/10/06 02:47:40;;;;;;;3.50;1.80;;;;;;;14.76;83.36;99539.22;4973924;28;20046;-92
2021/10/06 02:50:12;;;;;;;5.25;2.20;;;;;;;14.96;82.55;99532.38;4971957;28;20067;-92
2021/10/06 02:52:38;;;;;;;4.25;2.22;;;;;;;15.02;80.78;99531.06;4974783;28;20079;-91
2021/10/06 02:55:06;;;;;;;7.90;3.17;;;;;;;15.07;80.08;99540.22;4975725;29;20046;-92
2021/10/06 02:57:37;;;;;;;5.63;1.80;;;;;;;15.05;79.40;99539.53;4972277;28;20043;-93
2021/10/06 03:00:10;;;;;;;7.40;1.92;;;;;;;15.07;78.33;99540.22;4977688;28;20115;-93
2021/10/06 03:02:41;;;;;;;8.30;2.72;;;;;;;15.14;77.90;99545.84;4962053;28;20058;-94
2021/10/06 03:05:11;;;;;;;7.82;2.88;;;;;;;15.25;77.33;99543.19;5011010;22;20088;-81
2021/10/06 03:07:39;;;;;;;6.50;2.20;;;;;;;15.33;77.50;99545.19;5011729;28;20104;-81
2021/10/06 03:10:09;;;;;;;5.57;2.10;;;;;;;15.35;77.17;99541.50;4995629;28;20046;-81
2021/10/06 03:12:36;;;;;;;7.53;2.17;;;;;;;15.32;76.70;99533.84;4993483;28;20081;-81
2021/10/06 03:15:05;;;;;;;7.80;2.40;;;;;;;15.35;77.20;99538.03;4993125;28;20509;-77
2021/10/06 03:17:32;;;;;;;6.53;2.35;;;;;;;15.34;77.21;99533.72;4993024;28;20046;-78
2021/10/06 03:19:58;;;;;;;9.93;1.70;;;;;;;15.24;80.35;99535.44;4993067;28;20044;-76
2021/10/06 03:22:25;;;;;;;6.75;1.60;;;;;;;15.22;81.08;99532.09;4992722;28;20046;-79
2021/10/06 03:24:52;;;;;;;10.25;1.92;;;;;;;15.16;81.63;99534.25;4992802;28;20485;-79
2021/10/06 03:27:19;;;;;;;6.18;1.73;;;;;;;15.14;81.49;99535.34;4992923;28;20046;-79
2021/10/06 03:29:46;;;;;;;4.63;1.75;;;;;;;15.10;80.87;99526.03;4992584;28;20046;-79
2021/10/06 03:32:13;;;;;;;3.67;1.67;;;;;;;14.93;81.79;99525.59;4992559;28;20080;-79
2021/10/06 03:34:39;;;;;;;7.28;1.63;;;;;;;14.86;81.86;99520.94;4992569;28;20061;-78
2021/10/06 03:37:06;;;;;;;6.60;1.70;;;;;;;14.78;81.94;99528.59;4993404;28;20038;-78
2021/10/06 03:39:34;;;;;;;2.85;1.60;;;;;;;14.78;81.27;99523.34;4992578;28;20489;-78
2021/10/06 03:42:00;;;;;;;7.90;1.40;;;;;;;14.75;82.82;99526.19;4993157;28;20085;-78
2021/10/06 03:44:27;;;;;;;4.07;1.30;;;;;;;14.66;86.09;99525.97;4992519;28;20491;-77
2021/10/06 03:46:54;;;;;;;2.22;0.90;;;;;;;14.55;87.71;99510.25;4993008;28;20055;-78
2021/10/06 03:49:21;;;;;;;5.55;1.02;;;;;;;14.49;88.44;99513.38;4992436;28;20089;-78
2021/10/06 03:51:48;;;;;;;3.30;1.23;;;;;;;14.54;87.24;99512.97;4992839;28;20552;-79
2021/10/06 03:54:14;;;;;;;5.05;1.50;;;;;;;14.57;86.50;99518.00;4992389;28;20046;-79
2021/10/06 03:56:41;;;;;;;8.57;1.45;;;;;;;14.52;86.95;99518.34;4992817;28;20046;-78
2021/10/06 03:59:08;;;;;;;8.73;2.35;;;;;;;14.39;86.06;99528.09;4992584;28;20174;-79
2021/10/06 04:01:35;;;;;;;4.40;1.85;;;;;;;14.36;85.74;99530.94;4992885;28;20042;-78
2021/10/06 04:04:01;;;;;;;3.45;1.10;;;;;;;14.41;86.16;99516.53;4992750;28;20049;-78
2021/10/06 04:06:28;;;;;;;5.30;1.25;;;;;;;14.29;88.67;99514.03;4992259;28;20058;-78
2021/10/06 04:08:55;;;;;;;7.18;1.38;;;;;;;14.16;90.42;99507.09;4993368;28;20520;-79
2021/10/06 04:11:21;;;;;;;4.55;1.20;;;;;;;14.12;90.62;99494.34;4996286;28;20070;-79
2021/10/06 04:13:48;;;;;;;3.70;1.58;;;;;;;14.02;90.07;99502.09;4984272;28;20038;-79
2021/10/06 04:16:15;;;;;;;6.57;1.33;;;;;;;14.02;90.53;99501.25;4995907;28;20452;-82
2021/10/06 04:18:42;;;;;;;3.42;1.05;;;;;;;14.18;88.33;99507.00;4996360;28;20050;-79
2021/10/06 04:21:08;;;;;;;4.50;0.93;;;;;;;14.26;87.95;99496.72;4996206;28;20062;-79
2021/10/06 04:23:35;;;;;;;3.00;1.45;;;;;;;14.35;87.34;99501.28;4996314;28;20038;-82
2021/10/06 04:26:02;;;;;;;3.08;1.15;;;;;;;14.34;86.88;99499.63;4995570;28;20100;-78
2021/10/06 04:28:29;;;;;;;4.45;1.10;;;;;;;14.51;87.46;99506.19;4996070;28;20050;-81
2021/10/06 04:30:55;;;;;;;3.65;1.23;;;;;;;14.57;86.38;99507.50;4995738;28;20077;-79
2021/10/06 04:33:22;;;;;;;5.03;1.70;;;;;;;14.42;87.39;99510.31;4995867;28;20038;-79
2021/10/06 04:35:49;;;;;;;6.38;2.22;;;;;;;14.48;87.37;99511.66;4995414;28;20046;-77
2021/10/06 04:38:16;;;;;;;6.78;3.40;;;;;;;14.60;86.33;99508.09;4995096;28;20038;-79
2021/10/06 04:40:42;;;;;;;11.27;4.10;;;;;;;14.78;84.99;99507.59;4995362;28;20116;-79
2021/10/06 04:43:11;;;;;;;5.57;3.70;;;;;;;14.82;84.45;99519.53;4995008;28;20038;-76
2021/10/06 04:45:39;;;;;;;33.03;9.75;;;;;;;15.25;86.99;99509.06;4994559;28;20051;-75
2021/10/06 04:48:06;;;;;;;7.53;3.03;;;;;;;15.29;81.69;99517.53;4994280;28;20402;-76
2021/10/06 04:50:33;;;;;;;5.78;2.10;;;;;;;15.13;81.90;99508.25;4994117;28;20073;-77
2021/10/06 04:53:04;;;;;;;2.97;1.10;;;;;;;15.23;78.93;99499.63;4994784;28;20385;-76
2021/10/06 04:55:37;;;;;;;2.33;1.30;;;;;;;15.53;73.19;99494.50;4995427;28;20077;-77
2021/10/06 04:58:05;;;;;;;3.60;1.10;;;;;;;15.47;71.86;99484.50;4993632;28;20054;-77
2021/10/06 05:00:32;;;;;;;3.42;1.42;;;;;;;15.31;72.48;99489.34;4993987;28;20046;-77
2021/10/06 05:03:12;;;;;;;1.75;1.10;;;;;;;15.08;75.50;99493.84;4995965;28;20042;-78
2021/10/06 05:05:40;;;;;;;6.43;1.50;;;;;;;14.90;76.98;99498.75;4993934;28;20042;-79
2021/10/06 05:08:08;;;;;;;4.93;1.00;;;;;;;14.80;77.97;99490.78;4995070;28;20045;-78
2021/10/06 05:10:35;;;;;;;4.13;0.98;;;;;;;14.77;77.08;99484.97;4994975;28;20050;-82
2021/10/06 05:13:02;;;;;;;3.40;0.73;;;;;;;14.79;77.12;99498.78;4995658;28;20046;-80
2021/10/06 05:15:29;;;;;;;1.90;0.90;;;;;;;14.96;75.64;99490.38;4993956;28;20053;-78
2021/10/06 05:17:55;;;;;;;1.63;1.25;;;;;;;15.12;74.51;99485.56;4988238;28;20034;-78
2021/10/06 05:20:22;;;;;;;1.45;0.75;;;;;;;15.08;75.09;99492.06;4986021;28;20049;-77
2021/10/06 05:22:49;;;;;;;3.20;1.05;;;;;;;15.64;77.57;99476.09;4986965;28;20042;-78
2021/10/06 05:25:16;;;;;;;1.38;0.95;;;;;;;15.25;72.87;99484.59;4988508;28;20030;-82
2021/10/06 05:27:42;;;;;;;6.22;1.10;;;;;;;15.18;74.56;99479.84;4989228;28;20085;-82
2021/10/06 05:30:10;;;;;;;1.95;0.90;;;;;;;15.31;73.03;99479.66;4990582;28;20042;-83
2021/10/06 05:32:37;;;;;;;2.10;1.02;;;;;;;15.32;73.03;99475.25;4989396;28;20046;-81
2021/10/06 05:35:04;;;;;;;1.33;0.80;;;;;;;15.38;72.08;99486.06;4989789;28;20043;-82
2021/10/06 05:37:31;;;;;;;1.00;0.90;;;;;;;15.42;70.61;99481.41;4988949;28;20180;-82
2021/10/06 05:39:58;;;;;;;3.17;1.20;;;;;;;15.44;70.84;99480.31;4991714;28;20093;-81
2021/10/06 05:42:24;;;;;;;3.67;0.85;;;;;;;15.42;71.90;99487.50;4989052;28;20038;-81
2021/10/06 05:44:51;;;;;;;3.38;1.20;;;;;;;15.30;73.37;99490.31;4990304;28;20042;-81
2021/10/06 05:47:18;;;;;;;5.00;1.33;;;;;;;15.40;72.47;99478.94;4990241;28;20401;-82
2021/10/06 05:49:47;;;;;;;2.35;1.80;;;;;;;15.62;69.89;99470.09;4990862;28;20053;-81
2021/10/06 05:52:14;;;;;;;6.15;1.15;;;;;;;15.75;68.51;99467.31;4990313;28;20112;-81
2021/10/06 05:54:40;;;;;;;4.20;0.90;;;;;;;15.73;68.49;99457.91;4990349;28;20092;-80
2021/10/06 05:57:07;;;;;;;3.53;1.00;;;;;;;15.70;69.05;99458.97;4992376;28;20101;-81
2021/10/06 05:59:34;;;;;;;2.35;0.77;;;;;;;15.51;72.72;99462.28;4989577;28;20042;-80
2021/10/06 06:02:01;;;;;;;5.85;1.00;;;;;;;15.44;75.04;99463.72;4988265;28;20049;-81
2021/10/06 06:04:28;;;;;;;4.47;1.38;;;;;;;15.41;75.47;99472.72;4992685;28;20049;-82
2021/10/06 06:06:55;;;;;;;5.03;1.00;;;;;;;15.65;72.68;99467.22;4993543;28;20058;-82
2021/10/06 06:09:22;;;;;;;3.17;1.48;;;;;;;15.98;70.23;99478.53;4992881;28;20108;-79
2021/10/06 06:11:51;;;;;;;2.22;1.10;;;;;;;16.12;69.56;99470.28;4992699;28;20138;-80
2021/10/06 06:14:19;;;;;;;4.43;1.23;;;;;;;15.97;72.64;99479.47;4993502;28;20048;-80
2021/10/06 06:16:46;;;;;;;3.50;0.90;;;;;;;15.91;72.28;99480.81;4993363;28;20450;-80
2021/10/06 06:19:13;;;;;;;4.03;0.95;;;;;;;16.06;70.36;99476.06;4993593;28;20092;-80
2021/10/06 06:21:40;;;;;;;2.88;0.98;;;;;;;16.14;69.61;99484.16;4993105;28;20118;-80
2021/10/06 06:24:07;;;;;;;1.77;0.80;;;;;;;16.28;68.30;99480.31;4993479;28;20577;-80
2021/10/06 06:26:34;;;;;;;2.28;1.10;;;;;;;16.60;66.38;99485.44;4992652;28;20104;-81
2021/10/06 06:29:01;;;;;;;2.08;1.10;;;;;;;16.81;65.39;99487.19;4991075;28;21346;-80
2021/10/06 06:31:30;;;;;;;2.90;0.88;;;;;;;17.11;63.45;99488.94;4989752;28;20046;-79
2021/10/06 06:33:57;;;;;;;1.85;0.88;;;;;;;17.12;63.39;99486.16;4991846;28;20382;-79
2021/10/06 06:36:23;;;;;;;2.92;0.90;;;;;;;17.20;63.12;99478.38;4992278;28;20612;-79
2021/10/06 06:38:50;;;;;;;5.40;1.20;;;;;;;17.40;61.95;99476.59;4991990;28;20054;-80
2021/10/06 06:41:17;;;;;;;3.47;0.90;;;;;;;17.57;61.47;99474.22;4992235;28;20489;-80
2021/10/06 06:43:44;;;;;;;2.08;0.80;;;;;;;17.87;60.94;99481.16;4993183;28;20501;-79
2021/10/06 06:46:10;;;;;;;3.75;1.02;;;;;;;17.97;61.59;99484.63;4993452;28;20058;-79
2021/10/06 06:48:39;;;;;;;2.58;0.90;;;;;;;18.36;61.37;99481.84;4993010;28;20096;-81
2021/10/06 06:51:06;;;;;;;8.45;3.00;;;;;;;18.76;59.38;99489.50;4991690;28;20049;-79
2021/10/06 06:53:33;;;;;;;1.80;0.90;;;;;;;19.06;57.69;99480.38;4991911;28;20097;-79
2021/10/06 06:56:00;;;;;;;3.63;1.17;;;;;;;19.36;55.84;99474.75;4993649;28;20401;-80
2021/10/06 06:58:27;;;;;;;2.17;1.23;;;;;;;19.38;55.83;99469.31;4992019;28;20042;-79
2021/10/06 07:00:54;;;;;;;3.33;1.10;;;;;;;19.61;54.45;99459.13;4992826;28;20043;-79
2021/10/06 07:03:21;;;;;;;4.18;0.90;;;;;;;19.42;54.84;99464.56;4993636;28;20049;-79
2021/10/06 07:05:48;;;;;;;3.97;1.00;;;;;;;19.41;54.22;99458.44;4992825;28;20038;-79
2021/10/06 07:08:15;;;;;;;4.78;1.00;;;;;;;19.47;53.30;99465.75;4993453;28;20049;-79
2021/10/06 07:10:42;;;;;;;1.63;0.80;;;;;;;19.83;51.33;99460.44;4993045;28;20068;-79
2021/10/06 07:13:28;;;;;;;2.45;0.90;;;;;;;20.03;51.22;99453.13;4993598;28;20050;-79
2021/10/06 07:15:56;;;;;;;4.88;1.40;;;;;;;19.92;51.39;99456.88;4992970;28;20045;-80
2021/10/06 07:18:23;;;;;;;7.40;1.48;;;;;;;19.65;51.33;99449.06;4993348;28;20089;-79
2021/10/06 07:20:50;;;;;;;2.63;0.95;;;;;;;19.80;51.86;99448.34;4992871;28;20077;-79
2021/10/06 07:23:16;;;;;;;3.35;1.63;;;;;;;19.77;51.44;99447.84;4993328;28;20457;-80
2021/10/06 07:25:43;;;;;;;2.10;1.30;;;;;;;19.73;52.13;99439.38;4993086;28;20038;-80
2021/10/06 07:28:10;;;;;;;4.20;1.55;;;;;;;19.74;51.56;99440.22;4993156;28;20105;-80
2021/10/06 07:30:37;;;;;;;2.50;1.52;;;;;;;19.41;52.84;99433.81;4993126;28;20030;-80
2021/10/06 07:33:04;;;;;;;3.22;1.27;;;;;;;19.51;53.10;99437.22;4993045;28;20074;-79
2021/10/06 07:35:30;;;;;;;3.53;1.38;;;;;;;19.53;52.79;99429.94;4992950;28;20046;-79
2021/10/06 07:37:57;;;;;;;4.93;1.52;;;;;;;19.51;53.14;99416.91;4992740;28;20062;-79
2021/10/06 07:40:25;;;;;;;4.20;1.48;;;;;;;19.61;52.57;99414.19;4992897;28;20100;-79
2021/10/06 07:42:51;;;;;;;3.20;1.45;;;;;;;19.79;51.67;99422.91;4993247;28;20547;-79
2021/10/06 07:45:18;;;;;;;3.45;1.20;;;;;;;19.98;50.44;99423.69;4996978;28;20050;-79
2021/10/06 07:47:45;;;;;;;3.10;1.00;;;;;;;19.92;49.63;99434.84;4996444;28;20074;-80
2021/10/06 07:50:12;;;;;;;2.88;1.00;;;;;;;20.20;48.31;99428.41;4996767;28;20093;-80
2021/10/06 07:52:39;;;;;;;3.55;1.10;;;;;;;20.54;47.66;99431.06;4996705;28;20592;-80
2021/10/06 07:55:07;;;;;;;4.03;1.30;;;;;;;20.95;47.33;99420.59;4996743;28;20560;-80
2021/10/06 07:57:36;;;;;;;5.60;1.23;;;;;;;20.83;46.93;99425.38;4996764;28;20097;-80
2021/10/06 08:00:05;;;;;;;3.20;1.13;;;;;;;20.99;46.88;99421.91;4996234;28;20038;-80
2021/10/06 08:02:37;;;;;;;3.95;1.20;;;;;;;20.55;48.02;99437.19;4996563;28;20049;-79
2021/10/06 08:05:05;;;;;;;7.43;2.53;;;;;;;20.06;52.67;99439.59;4995878;28;20121;-80
2021/10/06 08:07:31;;;;;;;19.08;3.97;;;;;;;20.41;52.89;99436.78;4996590;28;20042;-80
2021/10/06 08:09:58;;;;;;;7.82;1.90;;;;;;;21.24;49.39;99437.84;4996363;28;20050;-80
2021/10/06 08:12:25;;;;;;;16.17;2.63;;;;;;;21.15;50.67;99434.38;4996618;28;20049;-80
2021/10/06 08:14:51;;;;;;;7.07;1.60;;;;;;;20.95;49.87;99438.31;4996212;28;20470;-80
2021/10/06 08:17:18;;;;;;;7.97;1.58;;;;;;;20.80;50.83;99438.09;4996405;28;20039;-80
2021/10/06 08:19:46;;;;;;;2.85;1.17;;;;;;;20.47;53.69;99437.16;4995896;28;20105;-79
2021/10/06 08:22:13;;;;;;;5.68;2.40;;;;;;;20.38;57.75;99447.69;4996250;28;20053;-80
2021/10/06 08:24:42;;;;;;;9.05;3.55;;;;;;;19.73;61.39;99447.31;4996101;28;20074;-80
2021/10/06 08:27:11;;;;;;;13.00;3.65;;;;;;;20.19;60.83;99453.22;4996008;28;20480;-80
2021/10/06 08:29:38;;;;;;;8.70;3.90;;;;;;;20.64;61.55;99447.66;4996023;28;20077;-80
2021/10/06 08:32:05;;;;;;;13.43;3.55;;;;;;;19.96;67.19;99454.72;4995873;28;20046;-80
2021/10/06 08:34:32;;;;;;;13.35;3.25;;;;;;;19.47;68.55;99457.81;4996251;28;20050;-80
2021/10/06 08:36:59;;;;;;;8.25;4.53;;;;;;;19.03;71.16;99454.28;4995313;28;20097;-79
2021/10/06 08:39:26;;;;;;;17.13;3.28;;;;;;;19.00;69.82;99462.50;4996148;28;20043;-80
2021/10/06 08:41:53;;;;;;;3.90;2.40;;;;;;;18.89;66.22;99474.09;4995794;28;20050;-80
2021/10/06 08:44:25;;;;;;;9.57;3.10;;;;;;;18.80;66.06;99475.84;4996000;28;20054;-79
2021/10/06 08:46:53;;;;;;;4.57;2.50;;;;;;;18.55;67.25;99468.59;4995290;28;20049;-80
2021/10/06 08:49:20;;;;;;;6.90;2.13;;;;;;;19.09;66.42;99472.19;4995892;28;20039;-79
2021/10/06 08:51:47;;;;;;;4.57;2.35;;;;;;;19.07;66.53;99468.88;4995822;28;20046;-79
2021/10/06 08:54:14;;;;;;;4.38;2.53;;;;;;;18.72;68.35;99469.63;4994628;28;20047;-79
2021/10/06 08:56:42;;;;;;;6.28;3.33;;;;;;;18.86;69.38;99476.22;4995445;28;20093;-80
2021/10/06 08:59:09;;;;;;;7.38;3.95;;;;;;;18.46;70.15;99472.09;4994908;28;20046;-80
2021/10/06 09:01:42;;;;;;;8.35;3.40;;;;;;;18.54;68.05;99477.47;4995529;28;20050;-80
2021/10/06 09:04:09;;;;;;;6.72;2.70;;;;;;;18.38;67.05;99469.38;4995265;28;20117;-80
2021/10/06 09:06:44;;;;;;;9.55;2.85;;;;;;;18.58;66.66;99477.00;4995218;28;20382;-80
2021/10/06 09:09:14;;;;;;;5.45;2.50;;;;;;;18.50;68.25;99486.66;4995307;28;20050;-79
2021/10/06 09:11:42;;;;;;;4.18;2.60;;;;;;;18.42;66.47;99495.28;4995481;28;20038;-80
2021/10/06 09:14:09;;;;;;;6.72;2.47;;;;;;;19.03;64.93;99491.28;4995198;28;20077;-80
2021/10/06 09:16:37;;;;;;;5.13;2.33;;;;;;;18.73;65.40;99501.16;4995055;28;20038;-80
2021/10/06 09:19:06;;;;;;;3.78;2.55;;;;;;;18.78;63.00;99493.63;4994893;28;20046;-79
2021/10/06 09:21:55;;;;;;;5.40;2.60;;;;;;;18.82;62.39;99495.00;4995093;28;20046;-80
2021/10/06 09:24:22;;;;;;;3.97;1.70;;;;;;;19.38;60.97;99491.28;4995157;28;20124;-79
2021/10/06 09:27:06;;;;;;;4.85;2.67;;;;;;;19.17;61.56;99479.34;4995036;28;20409;-80
2021/10/06 09:29:46;;;;;;;7.20;2.47;;;;;;;19.09;62.70;99480.94;4995207;28;20489;-79
2021/10/06 09:32:41;;;;;;;4.28;2.40;;;;;;;18.96;64.89;99488.41;4994988;28;20042;-79
2021/10/06 09:35:09;;;;;;;9.30;2.53;;;;;;;18.93;66.14;99487.84;4993741;28;20125;-79
2021/10/06 09:37:44;;;;;;;6.15;4.30;;;;;;;18.59;68.48;99491.06;4994748;28;20101;-80
2021/10/06 09:40:13;;;;;;;5.57;3.30;;;;;;;18.68;69.25;99492.84;4994700;28;20126;-80
2021/10/06 09:42:47;;;;;;;7.53;3.75;;;;;;;18.28;71.11;99478.13;4994606;28;20050;-80
2021/10/06 09:45:37;;;;;;;8.13;4.47;;;;;;;18.61;71.90;99485.63;4994939;28;20042;-79
2021/10/06 09:48:14;;;;;;;8.85;3.97;;;;;;;18.62;72.03;99497.84;4990947;28;20038;-78
2021/10/06 09:50:49;;;;;;;5.40;3.78;;;;;;;18.13;75.01;99498.03;4994297;28;20133;-79
2021/10/06 09:53:21;;;;;;;7.60;3.75;;;;;;;18.03;76.68;99491.94;4994561;28;20053;-78
2021/10/06 09:55:52;;;;;;;9.02;5.13;;;;;;;17.77;79.02;99489.91;4994595;28;20052;-78
2021/10/06 09:58:20;;;;;;;11.30;4.68;;;;;;;17.62;80.06;99495.72;4994382;28;20050;-80
2021/10/06 10:00:50;;;;;;;8.10;3.88;;;;;;;17.69;80.38;99487.13;4994265;28;20136;-78
2021/10/06 10:03:18;;;;;;;9.60;4.30;;;;;;;17.80;79.89;99492.28;4993027;28;20093;-78
2021/10/06 10:05:45;;;;;;;7.97;5.05;;;;;;;17.69;80.25;99495.03;4993450;28;20046;-78
2021/10/06 10:08:12;;;;;;;5.80;4.50;;;;;;;18.00;78.94;99497.50;4993748;28;20046;-78
2021/10/06 10:10:39;;;;;;;9.70;4.78;;;;;;;18.22;78.27;99491.06;4994030;28;20054;-78
2021/10/06 10:13:06;;;;;;;6.30;4.72;;;;;;;18.24;77.94;99500.50;4993622;28;20047;-79
2021/10/06 10:15:33;;;;;;;13.75;5.18;;;;;;;17.99;79.25;99491.41;4994296;28;20096;-79
2021/10/06 10:18:02;;;;;;;6.80;5.30;;;;;;;18.10;79.22;99492.19;4994356;28;20065;-79
2021/10/06 10:20:34;;;;;;;10.90;6.38;;;;;;;18.04;80.58;99497.06;4993905;28;20058;-79
2021/10/06 10:23:03;;;;;;;10.20;7.20;;;;;;;18.23;80.30;99500.66;4994480;28;20042;-78
2021/10/06 10:25:38;;;;;;;10.73;8.77;;;;;;;18.00;82.06;99497.50;4974475;28;20043;-79
2021/10/06 10:28:12;;;;;;;9.23;8.30;;;;;;;17.60;85.21;99505.59;4974636;28;20051;-79
2021/10/06 10:30:56;;;;;;;;;;;;;;;17.57;86.75;99511.13;4982381;28;20520;-80
2021/10/06 10:33:42;;;;;;;9.13;8.23;;;;;;;17.42;87.66;99521.25;4992984;28;20004;-79
2021/10/06 10:36:34;;;;;;;10.50;7.53;;;;;;;17.51;87.24;99517.78;4993714;28;20043;-79
2021/10/06 10:39:05;;;;;;;8.98;8.07;;;;;;;17.39;88.63;99526.78;4993900;28;20047;-77
2021/10/06 10:41:42;;;;;;;12.15;10.07;;;;;;;17.11;91.49;99525.78;4993703;28;20386;-80
2021/10/06 10:44:10;;;;;;;18.30;10.75;;;;;;;17.17;93.15;99520.81;4993768;28;20050;-79
2021/10/06 10:46:56;;;;;;;10.82;9.55;;;;;;;17.29;92.69;99514.44;4993138;28;20062;-79
2021/10/06 10:49:23;;;;;;;11.55;8.98;;;;;;;16.85;95.07;99521.00;4993731;28;20564;-79
2021/10/06 10:51:59;;;;;;;10.30;9.25;;;;;;;17.10;95.80;99517.06;4993214;28;20046;-80
2021/10/06 10:54:39;;;;;;;10.70;9.50;;;;;;;16.91;97.97;99517.00;4993020;28;20047;-79
2021/10/06 10:57:21;;;;;;;11.40;10.15;;;;;;;16.68;100.00;99509.28;4992997;28;20452;-80
2021/10/06 10:59:51;;;;;;;11.18;9.90;;;;;;;16.95;100.00;99503.44;4973830;28;20050;-80
2021/10/06 11:02:22;;;;;;;10.75;9.65;;;;;;;16.93;98.97;99507.16;4976460;28;20034;-79
2021/10/06 11:05:03;;;;;;;11.27;10.02;;;;;;;16.97;100.00;99503.31;4993313;28;20097;-80
2021/10/06 11:07:30;;;;;;;22.77;10.75;;;;;;;16.89;100.00;99503.16;4992715;28;20133;-79
2021/10/06 11:09:59;;;;;;;11.25;9.20;;;;;;;17.37;98.81;99494.50;4993299;28;20050;-80
2021/10/06 11:12:25;;;;;;;10.95;9.18;;;;;;;17.39;95.33;99497.81;4992941;28;20046;-79
2021/10/06 11:15:12;;;;;;;9.95;7.60;;;;;;;17.63;90.68;99495.59;4993089;28;20038;-79
2021/10/06 11:18:19;;;;;;;8.55;4.93;;;;;;;17.50;87.21;99495.03;4992265;28;20050;-79
2021/10/06 11:20:58;;;;;;;9.10;4.15;;;;;;;18.06;82.43;99481.97;4992971;28;20180;-80
2021/10/06 11:23:31;;;;;;;4.65;3.42;;;;;;;17.90;82.29;99486.16;4993191;28;20104;-79
2021/10/06 11:26:05;;;;;;;4.20;3.05;;;;;;;18.00;81.68;99479.03;4992871;28;20038;-80
2021/10/06 11:28:35;;;;;;;;;;;;;;;18.33;81.90;99480.34;4993294;28;20050;-80
2021/10/06 11:31:03;;;;;;;6.38;5.55;;;;;;;18.25;83.43;99470.50;4992688;28;19973;-80
2021/10/06 11:33:31;;;;;;;9.65;7.95;;;;;;;19.07;78.74;99474.16;4993070;28;20050;-80
2021/10/06 11:36:10;;;;;;;9.88;7.60;;;;;;;19.55;76.56;99465.00;4992937;28;20074;-80
2021/10/06 11:38:37;;;;;;;8.15;7.25;;;;;;;19.46;76.29;99469.38;4993253;28;20042;-80
2021/10/06 11:41:04;;;;;;;9.02;7.80;;;;;;;19.13;76.27;99480.66;4992688;28;20046;-80